x

9441102 - Westport, Wa (wptw1) Weather Station

6:30am - Mon 16th Jan 2017 All times are PST. -8 hours from GMT.

  • Wind
    15mph, 17mph gusts
  • Sea Temp 45°f
  • 空気 Temp 37°f
  • Sea Pressure 1020.9mb
  • 9441102 - Westport, Wa
  • 9441102 - Westport, Wa

More Historic Weather Station data

Upgrade to MSW Pro to gain access to the past 30 days of data for over 8000 Wavebouys and Weather Stations around the globe.

Join Pro

Comparision Forecast

View Surf forecast
   
Mon 01/16 6:30am 15 17 mph 1020.9mb 45f 37f
6:24am 14 16 mph 1021.2mb 45f 37f
6:18am 13 16 mph 1021.4mb 45f 37f
6:12am 15 17 mph 1021.4mb 45f 37f
6:06am 14 16 mph 1021.6mb 45f 36f
6:00am 14 17 mph 1021.7mb 45f 37f
5:36am 13 14 mph 1021.9mb 47f 37f
5:30am 11 15 mph 1022mb 47f 37f
5:24am 13 15 mph 1021.9mb 47f 37f
5:18am 13 15 mph 1021.9mb 47f 36f
5:12am 11 14 mph 1022.1mb 47f 36f
5:06am 10 13 mph 1022.1mb 47f 37f
5:00am 11 14 mph 1022.2mb 47f 37f
4:36am 9 11 mph 1022.7mb 47f 36f
4:30am 10 11 mph 1022.8mb 47f 36f
4:24am 8 10 mph 1022.9mb 47f 36f
4:18am 9 11 mph 1022.8mb 47f 36f
4:12am 9 11 mph 1022.9mb 47f 37f
4:06am 10 11 mph 1022.9mb 47f 37f
4:00am 10
mph
1023.2mb 47f 37f
3:36am 9 11 mph 1023.3mb 47f 37f
3:30am 9 10 mph 1023.4mb 47f 38f
3:24am 8 9 mph 1023.5mb 47f 37f
3:18am 8 11 mph 1023.5mb 46f 37f
3:12am 11 13 mph 1023.3mb 46f 37f
3:06am 9 11 mph 1023.3mb 46f 37f
3:00am 8 11 mph 1023.4mb 46f 38f
2:36am 8 11 mph 1023.2mb 46f 38f
2:30am 9 11 mph 1023.3mb 46f 38f
2:24am 11 14 mph 1023.3mb 46f 38f
2:18am 11 13 mph 1023.4mb 46f 38f
2:12am 9 11 mph 1023.6mb 46f 38f
2:06am 7 9 mph 1023.7mb 46f 38f
2:00am 7 10 mph 1023.4mb 46f 38f
1:36am 8
mph
1023.4mb 44f 38f
1:30am 8
mph
1023.3mb 44f 38f
1:24am 6 7 mph 1023.4mb 44f 38f
1:18am 6 7 mph 1023.5mb 44f 38f
1:12am 6
mph
1023.4mb 44f 38f
1:06am 6 8 mph 1023.2mb 44f 38f
1:00am 8 9 mph 1023.4mb 44f 38f
12:36am 3 6 mph 1023.8mb 44f 38f
12:30am 5 7 mph 1023.6mb 44f 38f
12:24am 7 9 mph 1023.6mb 44f 38f
12:18am 9 11 mph 1023.5mb 44f 38f
12:12am 10 11 mph 1023.6mb 44f 38f
12:06am 8 10 mph 1023.6mb 44f 38f
12:00am 9 10 mph 1023.5mb 44f 38f
Sun 01/15 11:36pm 13 15 mph 1023.6mb 45f 37f
11:30pm 9 11 mph 1023.9mb 45f 37f
11:24pm 8 10 mph 1024mb 45f 37f
11:18pm 8 10 mph 1024mb 45f 37f
11:12pm 7 10 mph 1024.1mb 45f 37f
11:06pm 9 10 mph 1024mb 45f 37f
11:00pm 8 15 mph 1023.8mb 45f 37f
10:36pm 14 15 mph 1023.9mb 44f 37f
10:30pm 13 15 mph 1024.3mb 44f 37f
10:24pm 9 10 mph 1024.5mb 44f 37f
10:18pm 8 9 mph 1024.7mb 44f 37f
10:12pm 5 7 mph 1024.9mb 44f 37f
10:06pm 3 7 mph 1024.8mb 44f 37f
10:00pm 6 8 mph 1025mb 44f 37f
9:36pm 7 9 mph 1024.7mb 44f 37f
9:30pm 9 11 mph 1024.6mb 44f 37f
9:24pm 9 11 mph 1024.5mb 44f 37f
9:18pm 11
mph
1024.5mb 44f 37f
9:12pm 10 13 mph 1024.4mb 44f 37f
9:06pm 11 13 mph 1024.5mb 44f 37f
9:00pm 10 11 mph 1024.5mb 44f 37f
8:36pm 11 14 mph 1024.4mb 44f 39f
8:30pm 10 13 mph 1024.4mb 44f 38f
8:24pm 11 15 mph 1024.4mb 44f 38f
8:18pm 10 14 mph 1024.5mb 44f 38f
8:12pm 10 13 mph 1024.5mb 44f 38f
8:06pm 10 14 mph 1024.5mb 44f 39f
8:00pm 13 15 mph 1024.4mb 44f 39f
7:36pm 9 10 mph 1024.4mb 45f 40f
7:30pm 10 13 mph 1024.4mb 45f 40f
7:24pm 9 11 mph 1024.5mb 45f 40f
7:18pm 9 10 mph 1024.4mb 45f 40f
7:12pm 8 10 mph 1024.3mb 45f 40f
7:06pm 8 9 mph 1024.3mb 45f 40f
7:00pm 5 8 mph 1024.2mb 45f 40f
6:36pm 9 11 mph 1023.8mb 45f 40f
6:30pm 11 14 mph 1023.6mb 45f 40f
6:24pm 13 14 mph 1023.9mb 45f 40f
6:18pm 10 13 mph 1024mb 45f 40f
6:12pm 9 14 mph 1023.9mb 45f 41f
6:06pm 11 14 mph 1023.6mb 45f 41f
6:00pm 13 15 mph 1023.8mb 45f 41f
5:36pm 14 21 mph 1023.7mb 45f 42f
5:30pm 16 20 mph 1023.8mb 45f 43f
5:24pm 15 18 mph 1024mb 45f 43f
5:18pm 11 14 mph 1024.7mb 45f 43f
5:12pm 10 11 mph 1024.8mb 45f 44f
5:06pm 10 11 mph 1024.9mb 45f 44f
5:00pm 9 10 mph 1025mb 45f 44f
4:36pm 6 7 mph 1025.4mb 45f 44f
4:30pm 6 7 mph 1025.4mb 45f 44f
4:24pm 6 7 mph 1025.3mb 45f 44f
4:18pm 7 8 mph 1025.1mb 45f 45f
4:12pm 6 7 mph 1025.1mb 46f 45f
4:06pm 6 7 mph 1025.1mb 46f 46f
4:00pm 5 7 mph 1025mb 46f 46f
3:36pm 7 10 mph 1024.8mb 46f 46f
3:30pm 7 9 mph 1024.8mb 46f 47f
3:24pm 7 10 mph 1024.8mb 46f 46f
3:18pm 9 10 mph 1024.8mb 46f 46f
3:12pm 8 10 mph 1024.8mb 46f 46f
3:06pm 7 11 mph 1024.6mb 46f 46f
3:00pm 9 11 mph 1024.6mb 46f 46f
2:36pm 7 13 mph 1024.4mb 46f 46f
2:30pm 10 14 mph 1024.4mb 46f 46f
2:24pm 10 13 mph 1024.3mb 46f 45f
2:18pm 10 13 mph 1024.2mb 46f 45f
2:12pm 11 14 mph 1024.2mb 46f 44f
2:06pm 10 16 mph 1024.1mb 46f 43f
2:00pm 14 16 mph 1024.1mb 45f 43f
1:36pm 9 14 mph 1024.4mb 45f 45f
1:30pm 7 11 mph 1024.6mb 45f 45f
1:24pm 9 13 mph 1024.6mb 45f 44f
1:18pm 10 14 mph 1024.6mb 45f 43f
1:12pm 10 14 mph 1024.7mb 45f 43f
1:06pm 13 15 mph 1024.6mb 45f 42f
1:00pm 11 15 mph 1024.6mb 45f 43f
12:36pm 11 15 mph 1024.6mb 44f 41f
12:30pm 13 15 mph 1024.6mb 44f 41f
12:24pm 11 15 mph 1024.6mb 44f 41f
12:18pm 13 15 mph 1024.5mb 44f 41f
12:12pm 13 16 mph 1024.5mb 44f 40f
12:06pm 13 16 mph 1024.5mb 44f 40f
12:00pm 11 15 mph 1024.5mb 44f 40f
11:36am 10 13 mph 1024.9mb 44f 40f
11:30am 9 14 mph 1024.9mb 44f 39f
11:24am 10 13 mph 1024.9mb 44f 39f
11:18am 10 13 mph 1024.9mb 44f 39f
11:12am 8 13 mph 1025mb 44f 39f
11:06am 9 11 mph 1025.1mb 44f 38f
11:00am 8 13 mph 1025.2mb 44f 38f
10:36am 6 9 mph 1025.5mb 44f 38f
10:30am 8 10 mph 1025.5mb 45f 37f
10:24am 9 10 mph 1025.5mb 45f 37f
10:18am 7 8 mph 1025.5mb 45f 37f
10:12am 6 8 mph 1025.4mb 45f 37f
10:06am 8 11 mph 1025.3mb 45f 36f
10:00am 10 11 mph 1025.4mb 45f 35f
9:36am 8 10 mph 1025.5mb 45f 34f
9:30am 8 9 mph 1025.5mb 45f 34f
9:24am 8 13 mph 1025.5mb 45f 34f
9:18am 10 13 mph 1025.5mb 44f 34f
9:12am 10 13 mph 1025.6mb 44f 34f
9:06am 9 14 mph 1025.5mb 44f 34f
9:00am 10 13 mph 1025.5mb 44f 34f
8:36am 13 15 mph 1025.2mb 44f 34f
8:30am 14 16 mph 1025.3mb 44f 34f
8:24am 13 14 mph 1025.2mb 44f 34f
8:18am 11 14 mph 1025.3mb 44f 34f
8:12am 11 13 mph 1025.2mb 44f 34f
8:06am 11 13 mph 1025.1mb 44f 33f
8:00am 10 14 mph 1025mb 44f 33f
7:36am 14 16 mph 1025.1mb 44f 34f
7:30am 13 16 mph 1025mb 44f 34f
7:24am 14 16 mph 1025mb 44f 34f
7:18am 11 14 mph 1024.9mb 44f 34f
7:12am 11 14 mph 1024.7mb 45f 33f
7:06am 9 10 mph 1024.6mb 45f 33f
7:00am 10 11 mph 1024.5mb 45f 33f
6:54am 10 11 mph 1024.5mb 45f 32f
6:48am 11 14 mph 1024.5mb 45f 32f
6:36am 11 14 mph 1024.5mb 45f 32f
6:30am 13 14 mph 1024.7mb 45f 32f
6:24am 11 13 mph 1024.7mb 45f 32f
6:18am 10 13 mph 1024.8mb 45f 33f
6:12am 10 13 mph 1024.9mb 45f 33f
6:06am 10 11 mph 1025mb 45f 34f
6:00am 11 14 mph 1025.1mb 45f 34f
5:36am 10 14 mph 1025.4mb 45f 34f
5:30am 10 13 mph 1025.4mb 45f 34f
5:24am 11 13 mph 1025.3mb 45f 34f
5:18am 11 14 mph 1025.3mb 45f 34f
5:12am 11 15 mph 1025.2mb 45f 34f
5:06am 13 15 mph 1025.1mb 45f 34f
5:00am 14 16 mph 1025.2mb 45f 34f
4:54am 14 17 mph 1025.1mb 46f 34f
4:48am 15 17 mph 1025.1mb 46f 34f
4:36am 11 15 mph 1025.4mb 47f 35f
4:30am 13 17 mph 1025.4mb 47f 35f
4:24am 14 16 mph 1025.4mb 47f 35f
4:18am 15 17 mph 1025.3mb 47f 35f
4:12am 14 16 mph 1025.5mb 47f 36f
4:06am 13 15 mph 1025.5mb 47f 36f
4:00am 13 14 mph 1025.6mb 47f 36f
3:54am 11 13 mph 1025.5mb 47f 36f
3:48am 9 11 mph 1025.5mb 47f 36f
3:36am 9 10 mph 1025.5mb 47f 35f
3:30am 8 11 mph 1025.3mb 47f 35f
3:24am 10 11 mph 1025.2mb 47f 35f
3:18am 10 11 mph 1025mb 47f 35f
3:12am 9 11 mph 1025mb 46f 35f
3:06am 10 14 mph 1025mb 46f 35f
3:00am 11 14 mph 1025mb 46f 35f
2:54am 13 15 mph 1025mb 46f 35f
2:48am 11 14 mph 1025.1mb 46f 35f
2:36am 9 10 mph 1025.2mb 46f 35f
2:30am 8 11 mph 1025.1mb 46f 34f
2:24am 10 13 mph 1024.8mb 46f 34f
2:18am 9 11 mph 1025mb 46f 34f
2:12am 10 13 mph 1024.8mb 46f 35f
2:06am 10 13 mph 1024.8mb 46f 35f
2:00am 11 13 mph 1024.9mb 46f 35f
1:54am 10 13 mph 1024.9mb 46f 36f
1:48am 10 13 mph 1025.1mb 46f 35f
1:36am 9 10 mph 1025mb 45f 35f
1:30am 9 10 mph 1025mb 45f 35f
1:24am 8 10 mph 1024.8mb 45f 35f
1:18am 9 13 mph 1024.7mb 45f 35f
1:12am 10 13 mph 1024.8mb 45f 35f
1:06am 10 11 mph 1024.8mb 44f 35f
1:00am 10 11 mph 1024.9mb 43f 35f
12:54am 9 10 mph 1025mb 43f 35f
12:48am 10 11 mph 1024.9mb 43f 36f
12:36am 10 13 mph 1024.9mb 43f 36f
12:30am 10 13 mph 1025mb 43f 36f
12:24am 9 10 mph 1024.7mb 44f 36f
12:18am 9 11 mph 1024.7mb 44f 35f
12:12am 9 10 mph 1024.7mb 44f 35f
12:06am 7 9 mph 1024.7mb 44f 35f
12:00am 7 9 mph 1024.7mb 44f 35f
Sat 01/14 11:54pm 8 10 mph 1024.5mb 44f 35f
11:48pm 8 10 mph 1024.4mb 44f 35f
11:36pm 9 10 mph 1024.4mb 44f 35f
11:30pm 8 10 mph 1024.4mb 44f 35f
11:24pm 9 11 mph 1024.4mb 44f 35f
11:18pm 9 11 mph 1024.5mb 44f 36f
11:12pm 9 10 mph 1024.4mb 44f 36f
11:06pm 8 10 mph 1024.4mb 44f 36f
11:00pm 8 10 mph 1024.3mb 44f 36f
10:54pm 8 9 mph 1024.4mb 44f 36f
10:48pm 8 10 mph 1024.4mb 44f 36f
10:36pm 8 10 mph 1024.3mb 45f 36f
10:30pm 9 10 mph 1024.3mb 45f 36f
10:24pm 6 9 mph 1024.3mb 45f 36f
10:18pm 7 9 mph 1024.3mb 45f 36f
10:12pm 9 10 mph 1024.2mb 44f 36f
10:06pm 7 8 mph 1024.2mb 44f 36f
10:00pm 7 8 mph 1024.2mb 44f 35f
9:54pm 7 8 mph 1024.2mb 44f 35f
9:48pm 7 8 mph 1024.2mb 44f 36f
9:36pm 8 9 mph 1024.2mb 44f 35f
9:30pm 8 9 mph 1024.2mb 44f 36f
9:24pm 8 9 mph 1024.1mb 44f 36f
9:18pm 9
mph
1024.1mb 44f 36f
9:12pm 8 9 mph 1024.1mb 44f 36f
9:06pm 6 8 mph 1024mb 44f 36f
9:00pm 6 9 mph 1023.9mb 44f 36f
8:54pm 8 10 mph 1023.8mb 44f 37f
8:48pm 8 10 mph 1023.8mb 44f 37f
8:36pm 8 11 mph 1023.8mb 44f 37f
8:30pm 11 13 mph 1023.8mb 44f 37f
8:24pm 10 13 mph 1023.7mb 44f 37f
8:18pm 11 14 mph 1023.7mb 44f 38f
8:12pm 10 13 mph 1023.7mb 44f 38f
8:06pm 11 14 mph 1023.7mb 44f 38f
8:00pm 10 14 mph 1023.8mb 44f 38f
7:54pm 13 14 mph 1023.7mb 44f 38f
7:48pm 13 15 mph 1023.7mb 44f 38f
7:36pm 13 14 mph 1023.9mb 44f 38f
7:30pm 11 14 mph 1023.9mb 44f 38f
7:24pm 10 13 mph 1023.8mb 44f 38f
7:18pm 11 14 mph 1023.7mb 44f 38f
7:12pm 13 15 mph 1023.6mb 44f 38f
7:06pm 13 15 mph 1023.8mb 45f 38f
7:00pm 11 14 mph 1023.8mb 45f 38f
6:54pm 11 15 mph 1023.8mb 45f 38f
6:48pm 11 14 mph 1023.9mb 45f 38f
6:36pm 13 15 mph 1023.9mb 45f 39f
6:30pm 14 15 mph 1023.9mb 45f 39f
6:24pm 14 16 mph 1023.9mb 45f 39f
6:18pm 11 14 mph 1023.9mb 45f 39f
6:12pm 13 15 mph 1023.9mb 45f 40f
6:06pm 11 14 mph 1023.9mb 45f 40f
6:00pm 10 11 mph 1023.9mb 45f 40f
5:54pm 9 13 mph 1023.9mb 45f 40f
5:48pm 10 13 mph 1023.8mb 45f 40f
5:36pm 10 15 mph 1023.7mb 45f 40f
5:30pm 14 15 mph 1023.7mb 45f 41f
5:24pm 13 15 mph 1023.8mb 45f 41f
5:18pm 10 15 mph 1023.9mb 45f 41f
5:12pm 13 15 mph 1023.9mb 45f 41f
5:06pm 13 15 mph 1023.8mb 45f 41f
5:00pm 13 16 mph 1023.9mb 45f 41f
4:54pm 13 16 mph 1023.9mb 45f 42f
4:48pm 13 15 mph 1024mb 45f 42f
4:36pm 14 15 mph 1024.1mb 45f 42f
4:30pm 14 16 mph 1024.1mb 45f 42f
4:24pm 11 15 mph 1024.1mb 46f 42f
4:18pm 14 15 mph 1024mb 46f 43f
4:12pm 13 14 mph 1024mb 46f 43f
4:06pm 10 13 mph 1024.1mb 46f 43f
4:00pm 10 13 mph 1024.2mb 46f 43f
3:54pm 10 14 mph 1024.3mb 46f 43f
3:48pm 10 14 mph 1024.3mb 46f 43f
3:36pm 13 15 mph 1024.5mb 46f 44f
3:30pm 13 15 mph 1024.5mb 46f 44f
3:24pm 11 14 mph 1024.5mb 46f 44f
3:18pm 10 14 mph 1024.5mb 46f 44f
3:12pm 9 14 mph 1024.5mb 45f 44f
3:06pm 10 13 mph 1024.5mb 46f 44f
3:00pm 9 11 mph 1024.5mb 46f 45f
2:54pm 9 13 mph 1024.6mb 46f 44f
2:48pm 10 14 mph 1024.6mb 46f 45f
2:36pm 7 9 mph 1024.5mb 46f 44f
2:30pm 7 10 mph 1024.5mb 46f 44f
2:24pm 8 11 mph 1024.5mb 46f 44f
2:18pm 8 10 mph 1024.5mb 46f 44f
2:12pm 10 13 mph 1024.5mb 46f 45f
2:06pm 9 11 mph 1024.5mb 46f 44f
2:00pm 9 11 mph 1024.6mb 46f 44f
1:54pm 10 13 mph 1024.5mb 46f 44f
1:48pm 9 13 mph 1024.7mb 46f 44f
1:36pm 8 11 mph 1024.9mb 46f 45f
1:30pm 9 10 mph 1024.9mb 46f 45f
1:24pm 8 11 mph 1025mb 46f 45f
1:18pm 6 11 mph 1025mb 46f 45f
1:12pm 9 13 mph 1025.1mb 46f 44f
1:06pm 9 13 mph 1025.2mb 46f 43f
1:00pm 11 14 mph 1025.3mb 46f 43f
12:54pm 10 11 mph 1025.3mb 46f 43f
12:48pm 10 13 mph 1025.4mb 46f 42f
12:36pm 9 13 mph 1025.6mb 45f 42f
12:30pm 10 14 mph 1025.8mb 45f 42f
12:24pm 10 15 mph 1025.9mb 44f 41f
12:18pm 14 15 mph 1026mb 44f 41f
12:12pm 13 15 mph 1026.1mb 44f 41f
12:06pm 9 16 mph 1026.2mb 44f 41f
12:00pm 13 17 mph 1026.2mb 44f 41f
11:54am 14 17 mph 1026.3mb 44f 40f
11:48am 13 15 mph 1026.3mb 44f 40f
11:36am 9 17 mph 1026.2mb 44f 40f
11:30am 16 21 mph 1026.2mb 44f 39f
11:24am 20 23 mph 1026.2mb 44f 39f
11:18am 21 24 mph 1026.4mb 44f 38f
11:12am 21 23 mph 1026.5mb 44f 38f
11:06am 20 24 mph 1026.5mb 44f 38f
11:00am 22 24 mph 1026.6mb 44f 37f
10:54am 20 24 mph 1026.8mb 44f 37f
10:48am 17 24 mph 1026.9mb 43f 37f
10:36am 17 22 mph 1027mb 43f 36f
10:30am 18 23 mph 1027.1mb 44f 36f
10:24am 18 22 mph 1027.2mb 44f 36f
10:18am 20 23 mph 1027.3mb 44f 35f
10:12am 18 22 mph 1027.4mb 44f 35f
10:06am 20 22 mph 1027.4mb 44f 35f
10:00am 20 23 mph 1027.5mb 44f 35f
9:54am 20 23 mph 1027.6mb 44f 35f
9:48am 18 22 mph 1027.8mb 44f 35f
9:36am 20 23 mph 1027.9mb 44f 34f
9:30am 17 21 mph 1027.8mb 44f 34f
9:24am 15 18 mph 1027.9mb 45f 34f
9:18am 15 18 mph 1027.7mb 45f 34f
9:12am 17 21 mph 1027.7mb 45f 34f
9:06am 16 22 mph 1027.7mb 44f 33f
9:00am 17 21 mph 1027.7mb 44f 33f
8:54am 16 22 mph 1027.6mb 44f 33f
8:48am 18 21 mph 1027.5mb 44f 33f
8:36am 20 23 mph 1027.5mb 44f 33f
8:30am 18 23 mph 1027.5mb 44f 33f
8:24am 18 21 mph 1027.6mb 44f 32f
8:18am 16 20 mph 1027.6mb 44f 32f
8:12am 16 20 mph 1027.6mb 44f 32f
8:06am 16 21 mph 1027.5mb 44f 32f
8:00am 18 21 mph 1027.5mb 44f 32f
7:54am 18 21 mph 1027.4mb 44f 32f
7:48am 17 22 mph 1027.5mb 44f 32f
7:36am 20 22 mph 1027.4mb 44f 33f
7:30am 21 23 mph 1027.4mb 44f 33f
7:24am 18 21 mph 1027.5mb 44f 33f
7:18am 18 22 mph 1027.6mb 44f 33f
7:12am 15 20 mph 1027.6mb 44f 32f
7:06am 16 20 mph 1027.5mb 44f 33f
7:00am 14 21 mph 1027.5mb 44f 32f
6:54am 16 22 mph 1027.4mb 44f 32f
6:48am 18 23 mph 1027.4mb 44f 32f
6:36am 21 23 mph 1027.5mb 44f 33f
6:30am 17 23 mph 1027.7mb 44f 33f
6:24am 16 21 mph 1027.7mb 44f 33f
6:18am 17 21 mph 1027.8mb 44f 33f
6:12am 17 22 mph 1027.7mb 44f 33f
6:06am 20 22 mph 1027.8mb 44f 33f
6:00am 17 20 mph 1028mb 44f 33f
5:54am 16 20 mph 1028mb 44f 33f
5:48am 17 20 mph 1028.1mb 44f 33f
5:36am 17 21 mph 1028.2mb 44f 33f
5:30am 16 20 mph 1028.2mb 44f 32f
5:24am 14 17 mph 1028.2mb 44f 33f
5:18am 16 21 mph 1028.3mb 45f 33f
5:12am 18 21 mph 1028.4mb 44f 33f
5:06am 20 22 mph 1028.4mb 44f 33f
5:00am 17 22 mph 1028.5mb 44f 33f
4:54am 17 22 mph 1028.7mb 44f 33f
4:48am 16 20 mph 1028.8mb 44f 33f
4:36am 13 17 mph 1028.9mb 44f 33f
4:30am 15 18 mph 1028.8mb 45f 33f
4:24am 15 18 mph 1028.8mb 45f 33f
4:18am 16 20 mph 1028.8mb 45f 33f
4:12am 16 20 mph 1028.7mb 46f 33f
4:06am 16 20 mph 1028.7mb 46f 33f
4:00am 17 20 mph 1028.6mb 46f 33f
3:54am 16 20 mph 1028.7mb 46f 33f
3:48am 17 20 mph 1028.8mb 46f 33f
3:36am 16 22 mph 1029.1mb 47f 33f
3:30am 18 22 mph 1029.2mb 47f 33f
3:24am 18 23 mph 1029.1mb 47f 33f
3:18am 22 24 mph 1029.1mb 47f 33f
3:12am 20 23 mph 1028.9mb 47f 34f
3:06am 17 23 mph 1028.8mb 47f 33f
3:00am 21 23 mph 1028.5mb 47f 33f
2:54am 21 24 mph 1028.6mb 47f 33f
2:48am 18 23 mph 1028.6mb 47f 34f
2:36am 17 20 mph 1028.7mb 47f 34f
2:30am 17 20 mph 1028.7mb 47f 34f
2:24am 13 20 mph 1028.7mb 47f 33f
2:18am 15 18 mph 1028.6mb 47f 33f
2:12am 15 20 mph 1028.4mb 47f 34f
2:06am 16 21 mph 1028.3mb 47f 34f
2:00am 16 23 mph 1028.2mb 47f 34f
1:54am 21 23 mph 1028.1mb 47f 34f
1:48am 17 22 mph 1028.2mb 47f 34f
1:36am 17 23 mph 1028.3mb 46f 34f
1:30am 17 22 mph 1028.3mb 46f 34f
1:24am 20 24 mph 1028.4mb 46f 34f
1:18am 21 23 mph 1028.5mb 46f 34f
1:12am 18 22 mph 1028.7mb 46f 35f
1:06am 18 22 mph 1028.9mb 46f 35f
1:00am 17 21 mph 1028.9mb 46f 35f
12:54am 18 21 mph 1029mb 46f 35f
12:48am 15 22 mph 1029mb 46f 35f
12:36am 17 21 mph 1029mb 44f 35f
12:30am 17 22 mph 1029mb 44f 35f
12:24am 17 21 mph 1029mb 44f 35f
12:18am 14 21 mph 1029.2mb 44f 35f
12:12am 14 17 mph 1029.3mb 43f 35f
12:06am 14 17 mph 1029.2mb 42f 35f
12:00am 14 18 mph 1029.1mb 42f 35f
Fri 01/13 11:54pm 16 20 mph 1029.1mb 42f 35f
11:48pm 14 18 mph 1029.1mb 42f 35f
11:36pm 17 21 mph 1028.9mb 43f 35f
11:30pm 14 18 mph 1029mb 43f 35f
11:24pm 15 18 mph 1028.9mb 43f 35f
11:18pm 16 20 mph 1028.9mb 43f 35f
11:12pm 17 21 mph 1028.9mb 43f 35f
11:06pm 16 21 mph 1029mb 43f 35f
11:00pm 16 21 mph 1029mb 43f 35f
10:54pm 17 20 mph 1029mb 43f 35f
10:48pm 14 22 mph 1029mb 43f 35f
10:36pm 17 20 mph 1029mb 44f 35f
10:30pm 14 17 mph 1029.1mb 44f 35f
10:24pm 13 16 mph 1029.1mb 44f 35f
10:18pm 11 16 mph 1028.9mb 44f 35f
10:12pm 13 18 mph 1028.9mb 44f 35f
10:06pm 15 20 mph 1028.9mb 44f 35f
10:00pm 13 16 mph 1028.9mb 44f 35f
9:54pm 14 17 mph 1029mb 44f 35f
9:48pm 13 16 mph 1029.1mb 44f 35f
9:36pm 14 17 mph 1029.3mb 44f 35f
9:30pm 15 18 mph 1029.3mb 44f 35f
9:24pm 14 17 mph 1029.3mb 44f 35f
9:18pm 13 15 mph 1029.4mb 44f 35f
9:12pm 14 16 mph 1029.4mb 44f 35f
9:06pm 13 15 mph 1029.4mb 44f 35f
9:00pm 13 17 mph 1029.4mb 44f 35f
8:54pm 14 17 mph 1029.5mb 44f 35f
8:48pm 14 16 mph 1029.5mb 44f 35f
8:36pm 15 17 mph 1029.6mb 44f 35f
8:30pm 13 16 mph 1029.7mb 44f 35f
8:24pm 14 17 mph 1029.6mb 44f 35f
8:18pm 15 20 mph 1029.6mb 43f 35f
8:12pm 17 20 mph 1029.5mb 43f 35f
8:06pm 14 17 mph 1029.5mb 42f 35f
8:00pm 13 16 mph 1029.5mb 43f 35f
7:54pm 14 16 mph 1029.6mb 43f 35f
7:48pm 10 15 mph 1029.5mb 43f 35f
7:36pm 15 16 mph 1029.3mb 43f 35f
7:30pm 14
mph
1029.3mb 43f 35f
7:24pm 10 13 mph 1029.3mb 43f 34f
7:18pm 10 13 mph 1029.2mb 43f 34f
7:12pm 10 14 mph 1029.2mb 44f 34f
7:06pm 10 14 mph 1029.3mb 44f 35f
7:00pm 9 14 mph 1029.2mb 44f 35f
6:54pm 14 16 mph 1029mb 44f 35f
6:48pm 13 17 mph 1029.1mb 44f 35f
6:36pm 15 21 mph 1028.9mb 44f 35f
6:30pm 14 20 mph 1028.8mb 44f 35f
6:24pm 15 18 mph 1029mb 44f 35f
6:18pm 15 18 mph 1029.1mb 44f 36f
6:12pm 16 21 mph 1029.2mb 44f 36f
6:06pm 17 21 mph 1029.2mb 44f 36f
6:00pm 16 20 mph 1029.3mb 44f 36f
5:54pm 14 18 mph 1029.4mb 44f 36f
5:48pm 16 18 mph 1029.4mb 44f 36f
5:36pm 16 20 mph 1029.3mb 44f 36f
5:30pm 14 17 mph 1029.4mb 44f 36f
5:24pm 15 17 mph 1029.4mb 44f 36f
5:18pm 14 16 mph 1029.5mb 44f 36f
5:12pm 13 14 mph 1029.3mb 44f 36f
5:06pm 14 17 mph 1029mb 45f 36f
5:00pm 16 18 mph 1028.9mb 45f 36f
4:54pm 16 18 mph 1029mb 45f 36f
4:48pm 14 16 mph 1029mb 45f 36f
4:36pm 11 17 mph 1028.8mb 45f 36f
4:30pm 14 17 mph 1028.6mb 45f 36f
4:24pm 14 18 mph 1028.6mb 45f 37f
4:18pm 14 18 mph 1028.7mb 45f 37f
4:12pm 14 17 mph 1028.8mb 45f 37f
4:06pm 13 18 mph 1028.7mb 45f 36f
4:00pm 17 21 mph 1028.7mb 45f 36f
3:36pm 20 23 mph 1028.9mb 45f 37f
3:30pm 20 24 mph 1029mb 45f 37f
3:24pm 17 22 mph 1029.2mb 45f 37f
3:18pm 18 22 mph 1029.3mb 45f 37f
3:12pm 18 22 mph 1029.4mb 45f 37f
3:06pm 16 20 mph 1029.5mb 46f 37f
3:00pm 16 20 mph 1029.5mb 46f 37f
2:54pm 14 18 mph 1029.5mb 46f 37f
2:48pm 17 20 mph 1029.4mb 46f 37f
2:36pm 16 18 mph 1029.3mb 46f 37f
2:30pm 16 18 mph 1029mb 46f 37f
2:24pm 17 21 mph 1029mb 46f 37f
2:18pm 15 21 mph 1028.9mb 47f 37f
2:12pm 17 22 mph 1028.9mb 47f 37f
2:06pm 17 22 mph 1028.8mb 47f 37f
2:00pm 17 22 mph 1028.9mb 47f 37f
1:54pm 17 21 mph 1029mb 47f 37f
1:48pm 16 21 mph 1029.1mb 47f 37f
1:36pm 15 21 mph 1028.9mb 47f 36f
1:30pm 17 21 mph 1028.9mb 47f 36f
1:24pm 18 22 mph 1028.9mb 47f 36f
1:18pm 16 21 mph 1028.9mb 47f 36f
1:12pm 15 21 mph 1029.1mb 47f 36f
1:06pm 14 20 mph 1029.2mb 47f 36f
1:00pm 15 20 mph 1029.2mb 47f 36f
12:54pm 17 20 mph 1029.3mb 46f 36f
12:48pm 16 21 mph 1029.3mb 46f 36f
12:36pm 18 21 mph 1029.4mb 46f 36f
12:30pm 17 21 mph 1029.6mb 46f 35f
12:24pm 16 21 mph 1029.6mb 46f 35f
12:18pm 16 20 mph 1029.7mb 46f 35f
12:12pm 16 21 mph 1029.7mb 46f 35f
12:06pm 18 22 mph 1029.8mb 46f 35f
12:00pm 14 20 mph 1030mb 46f 35f
11:54am 14 22 mph 1030.1mb 46f 35f
11:48am 16 21 mph 1030.1mb 46f 35f
11:36am 17 23 mph 1030.2mb 45f 35f
11:30am 18 22 mph 1030.4mb 45f 34f
11:24am 16 21 mph 1030.4mb 44f 35f
11:18am 13 18 mph 1030.5mb 44f 35f
11:12am 13 17 mph 1030.6mb 44f 34f
11:06am 15 20 mph 1030.6mb 44f 35f
11:00am 15 21 mph 1030.5mb 44f 34f
10:54am 16 20 mph 1030.5mb 44f 34f
10:48am 15 20 mph 1030.4mb 44f 34f
10:36am 18 22 mph 1030.3mb 44f 33f
10:30am 18 22 mph 1030.2mb 44f 33f
10:24am 17 22 mph 1030.3mb 44f 33f
10:18am 18 21 mph 1030.1mb 43f 33f
10:12am 15 20 mph 1029.9mb 43f 33f
10:06am 17 23 mph 1029.8mb 43f 33f
10:00am 14 20 mph 1029.7mb 43f 33f
9:54am 16 20 mph 1029.7mb 43f 33f
9:48am 16 22 mph 1029.6mb 43f 33f
9:36am 17 23 mph 1029.5mb 43f 33f
9:30am 15 21 mph 1029.5mb 43f 33f
9:24am 20 23 mph 1029.5mb 43f 33f
9:18am 16 21 mph 1029.4mb 44f 32f
9:12am 17 23 mph 1029.3mb 44f 32f
9:06am 20 23 mph 1029.3mb 44f 32f
9:00am 17 22 mph 1029.3mb 44f 31f
8:54am 15 22 mph 1029.4mb 44f 31f
8:48am 16 23 mph 1029.4mb 44f 31f
8:36am 15 20 mph 1029.3mb 44f 31f
8:30am 17 21 mph 1029.3mb 44f 31f
8:24am 15 18 mph 1029.2mb 44f 31f
8:18am 13 18 mph 1029.1mb 44f 31f
8:12am 17 21 mph 1029mb 44f 31f
8:06am 17 21 mph 1029mb 44f 31f
8:00am 15 20 mph 1029mb 44f 31f
7:54am 14 18 mph 1029.1mb 44f 31f
7:48am 15 17 mph 1029.1mb 44f 31f
7:36am 13 15 mph 1029.4mb 44f 31f
7:30am 11 14 mph 1029.5mb 44f 31f
7:24am 11 15 mph 1029.3mb 44f 31f
7:18am 11 16 mph 1029.2mb 44f 31f
7:12am 11 17 mph 1029mb 44f 31f
7:06am 10 17 mph 1028.9mb 44f 31f
7:00am 13 17 mph 1028.8mb 44f 31f
6:36am 14 18 mph 1028.7mb 44f 31f
6:30am 11 17 mph 1028.6mb 44f 31f
6:24am 15 21 mph 1028.5mb 44f 31f
6:18am 14 20 mph 1028.5mb 44f 31f
6:12am 14 21 mph 1028.5mb 44f 31f
6:06am 17 22 mph 1028.6mb 44f 31f
6:00am 17 22 mph 1028.6mb 44f 31f
5:54am 16 21 mph 1028.6mb 44f 31f
5:48am 16 20 mph 1028.7mb 44f 31f
5:36am 13 18 mph 1028.8mb 44f 32f
5:30am 11 18 mph 1028.7mb 45f 32f
5:24am 15 20 mph 1028.6mb 45f 32f
5:18am 14 18 mph 1028.7mb 44f 32f
5:12am 14 18 mph 1028.8mb 44f 32f
5:06am 17 18 mph 1028.8mb 44f 32f
5:00am 14 17 mph 1028.7mb 44f 32f
4:54am 11 15 mph 1028.7mb 44f 32f
4:48am 13 16 mph 1028.7mb 44f 32f
4:36am 13 17 mph 1028.6mb 44f 32f
4:30am 16 20 mph 1028.5mb 44f 32f
4:24am 17 20 mph 1028.4mb 44f 32f
4:18am 11 15 mph 1028.5mb 44f 32f
4:12am 11 16 mph 1028.5mb 44f 32f
4:06am 11 16 mph 1028.5mb 44f 32f
4:00am 14 17 mph 1028.5mb 44f 32f
3:54am 11 16 mph 1028.5mb 44f 32f
3:48am 15 17 mph 1028.5mb 44f 32f
3:36am 13 15 mph 1028.3mb 45f 32f
3:30am 11 16 mph 1028.3mb 45f 32f
3:24am 13 15 mph 1028.4mb 45f 32f
3:18am 11 16 mph 1028.4mb 46f 32f
3:12am 13 17 mph 1028.3mb 46f 32f
3:06am 13 20 mph 1028.2mb 46f 33f
3:00am 15 20 mph 1028.1mb 46f 33f
2:54am 13 17 mph 1028.1mb 46f 32f
2:48am 14 20 mph 1028.1mb 47f 32f
2:36am 10 14 mph 1027.9mb 47f 31f
2:30am 10 14 mph 1027.8mb 47f 32f
2:24am 11 15 mph 1027.6mb 47f 32f
2:18am 13 15 mph 1027.5mb 47f 32f
2:12am 9 14 mph 1027.4mb 47f 32f
2:06am 10 15 mph 1027.3mb 47f 32f
2:00am 10 14 mph 1027.4mb 47f 33f
1:54am 13 17 mph 1027.4mb 47f 33f
1:48am 11 15 mph 1027.5mb 47f 33f
1:36am 13 17 mph 1027.5mb 47f 33f
1:30am 14 16 mph 1027.5mb 47f 33f
1:24am 15 18 mph 1027.5mb 47f 33f
1:18am 15 17 mph 1027.4mb 47f 33f
1:12am 15 17 mph 1027.4mb 47f 34f
1:06am 16 18 mph 1027.4mb 47f 34f
1:00am 14 17 mph 1027.4mb 47f 34f
12:54am 13 16 mph 1027.5mb 47f 34f
12:48am 11 15 mph 1027.3mb 47f 33f
12:36am 13 14 mph 1027mb 47f 33f
12:30am 13 15 mph 1026.9mb 46f 33f
12:24am 13 18 mph 1026.8mb 46f 33f
12:18am 13 16 mph 1026.9mb 46f 33f
12:12am 14 18 mph 1026.8mb 46f 33f
12:06am 11 16 mph 1026.9mb 45f 33f
12:00am 13 16 mph 1027mb 45f 33f
Thu 01/12 11:54pm 13 16 mph 1027mb 45f 33f
11:48pm 11 16 mph 1027mb 44f 33f
11:36pm 13 16 mph 1027mb 43f 34f
11:30pm 13 15 mph 1027.2mb 42f 34f
11:24pm 8 14 mph 1027.3mb 42f 33f
11:18pm 9 10 mph 1027.5mb 42f 33f
11:12pm 8 9 mph 1027.6mb 42f 33f
11:06pm 9 11 mph 1027.4mb 42f 33f
11:00pm 8 11 mph 1027.2mb 42f 33f
10:54pm 9 13 mph 1027.1mb 42f 33f
10:48pm 7 10 mph 1027.1mb 42f 34f
10:36pm 9 13 mph 1026.8mb 43f 34f
10:30pm 9 11 mph 1026.8mb 43f 34f
10:24pm 13 14 mph 1026.8mb 43f 34f
10:18pm 9 13 mph 1026.8mb 43f 34f
10:12pm 9 11 mph 1026.8mb 43f 34f
10:06pm 7 9 mph 1026.8mb 43f 33f
10:00pm 8 9 mph 1026.8mb 43f 33f
9:54pm 8 10 mph 1026.7mb 43f 33f
9:48pm 8 10 mph 1026.7mb 43f 33f
9:36pm 8 9 mph 1026.7mb 43f 33f
9:30pm 8 10 mph 1026.5mb 43f 33f
9:24pm 9
mph
1026.5mb 44f 33f
9:18pm 8 10 mph 1026.6mb 44f 33f
9:12pm 8 9 mph 1026.5mb 44f 34f
9:06pm 8 9 mph 1026.5mb 44f 34f
9:00pm 8 9 mph 1026.5mb 44f 34f
8:54pm 7 8 mph 1026.5mb 44f 34f
8:48pm 6 7 mph 1026.6mb 44f 34f
8:36pm 5
mph
1026.5mb 44f 34f
8:30pm 3 5 mph 1026.4mb 44f 34f
8:24pm 5
mph
1026.3mb 44f 34f
8:18pm 5 6 mph 1026.2mb 44f 34f
8:12pm 6 7 mph 1026.1mb 44f 35f
8:06pm 6 7 mph 1026.2mb 43f 35f
8:00pm 7
mph
1026.1mb 43f 35f
7:54pm 6 7 mph 1026.1mb 43f 35f
7:48pm 6 7 mph 1026mb 43f 35f
7:36pm 8
mph
1025.8mb 43f 36f
7:30pm 7 8 mph 1026mb 43f 36f
7:24pm 6 7 mph 1025.9mb 43f 36f
7:18pm 5 6 mph 1025.9mb 43f 36f
7:12pm 6
mph
1025.7mb 43f 36f
7:06pm 6
mph
1025.4mb 43f 37f
7:00pm 6
mph
1025.3mb 43f 37f
6:54pm 5
mph
1025.3mb 43f 37f
6:48pm 3 5 mph 1025.4mb 43f 37f
6:36pm 6 7 mph 1025mb 43f 37f
6:30pm 6
mph
1024.9mb 43f 37f
6:24pm 5 6 mph 1024.8mb 43f 38f
6:18pm 3 6 mph 1025mb 43f 38f
6:12pm 6
mph
1025.1mb 43f 38f
6:06pm 5 6 mph 1025mb 43f 38f
6:00pm 5 7 mph 1025mb 43f 38f
5:54pm 6 8 mph 1024.9mb 43f 38f
5:48pm 6 7 mph 1024.9mb 43f 38f
5:36pm 6
mph
1024.6mb 44f 38f
5:30pm 6 7 mph 1024.6mb 44f 38f
5:24pm 7 8 mph 1024.8mb 44f 38f
5:18pm 5 6 mph 1024.9mb 44f 38f
5:12pm 6 7 mph 1024.8mb 44f 39f
5:06pm 7 8 mph 1024.7mb 44f 39f
5:00pm 7 8 mph 1024.9mb 44f 39f
4:54pm 7 8 mph 1024.7mb 44f 39f
4:48pm 7 9 mph 1024.5mb 44f 39f
4:36pm 6 8 mph 1024.4mb 44f 40f
4:30pm 7 8 mph 1024.4mb 44f 40f
4:24pm 7 8 mph 1024.4mb 44f 40f
4:18pm 7 8 mph 1024.4mb 44f 40f
4:12pm 7 8 mph 1024.4mb 44f 41f
4:06pm 6 8 mph 1024.4mb 44f 41f
4:00pm 7 9 mph 1024.3mb 44f 41f
3:54pm 7 9 mph 1024.2mb 44f 41f
3:48pm 7 9 mph 1024.1mb 44f 41f
3:36pm  -  mph 1024mb 44f 41f
3:30pm  -  mph 1023.9mb 44f 41f
3:24pm  -  mph 1023.9mb 44f 41f
3:18pm  -  mph 1023.8mb 44f 41f